sensor_id;sensor_type;location;lat;lon;timestamp;pressure;altitude;pressure_sealevel;temperature;humidity
35649;BME280;21768;48.562;13.414;2024-01-30T00:01:13;98865.69;;;0.98;67.01
35649;BME280;21768;48.562;13.414;2024-01-30T00:03:38;98861.72;;;0.93;66.90
35649;BME280;21768;48.562;13.414;2024-01-30T00:06:04;98856.00;;;0.87;67.14
35649;BME280;21768;48.562;13.414;2024-01-30T00:08:30;98864.13;;;0.86;67.25
35649;BME280;21768;48.562;13.414;2024-01-30T00:10:55;98860.94;;;0.87;67.29
35649;BME280;21768;48.562;13.414;2024-01-30T00:13:21;98858.47;;;0.87;67.14
35649;BME280;21768;48.562;13.414;2024-01-30T00:15:49;98856.88;;;0.88;67.09
35649;BME280;21768;48.562;13.414;2024-01-30T00:18:14;98863.63;;;0.89;67.23
35649;BME280;21768;48.562;13.414;2024-01-30T00:20:40;98856.69;;;0.86;67.29
35649;BME280;21768;48.562;13.414;2024-01-30T00:23:06;98863.75;;;0.83;67.27
35649;BME280;21768;48.562;13.414;2024-01-30T00:25:31;98860.19;;;0.81;67.52
35649;BME280;21768;48.562;13.414;2024-01-30T00:27:58;98861.56;;;0.79;67.36
35649;BME280;21768;48.562;13.414;2024-01-30T00:30:23;98860.19;;;0.81;67.33
35649;BME280;21768;48.562;13.414;2024-01-30T00:32:49;98860.56;;;0.84;67.40
35649;BME280;21768;48.562;13.414;2024-01-30T00:35:15;98861.97;;;0.82;67.27
35649;BME280;21768;48.562;13.414;2024-01-30T00:37:40;98858.78;;;0.83;67.17
35649;BME280;21768;48.562;13.414;2024-01-30T00:40:06;98854.13;;;0.79;67.11
35649;BME280;21768;48.562;13.414;2024-01-30T00:42:33;98861.19;;;0.76;67.18
35649;BME280;21768;48.562;13.414;2024-01-30T00:44:58;98850.91;;;0.73;67.41
35649;BME280;21768;48.562;13.414;2024-01-30T00:47:24;98857.25;;;0.71;67.45
35649;BME280;21768;48.562;13.414;2024-01-30T00:49:49;98854.78;;;0.71;67.49
35649;BME280;21768;48.562;13.414;2024-01-30T00:52:15;98860.84;;;0.73;67.63
35649;BME280;21768;48.562;13.414;2024-01-30T00:54:41;98860.13;;;0.74;67.80
35649;BME280;21768;48.562;13.414;2024-01-30T00:57:07;98860.84;;;0.73;67.54
35649;BME280;21768;48.562;13.414;2024-01-30T00:59:33;98855.47;;;0.70;67.60
35649;BME280;21768;48.562;13.414;2024-01-30T01:01:58;98855.09;;;0.67;67.64
35649;BME280;21768;48.562;13.414;2024-01-30T01:04:24;98852.22;;;0.64;67.98
35649;BME280;21768;48.562;13.414;2024-01-30T01:06:50;98855.78;;;0.66;67.65
35649;BME280;21768;48.562;13.414;2024-01-30T01:09:16;98854.69;;;0.64;67.85
35649;BME280;21768;48.562;13.414;2024-01-30T01:11:41;98848.16;;;0.64;67.78
35649;BME280;21768;48.562;13.414;2024-01-30T01:14:07;98851.13;;;0.62;67.67
35649;BME280;21768;48.562;13.414;2024-01-30T01:16:33;98849.75;;;0.64;67.75
35649;BME280;21768;48.562;13.414;2024-01-30T01:18:59;98856.59;;;0.59;67.80
35649;BME280;21768;48.562;13.414;2024-01-30T01:21:25;98854.44;;;0.55;67.79
35649;BME280;21768;48.562;13.414;2024-01-30T01:23:51;98853.94;;;0.58;67.90
35649;BME280;21768;48.562;13.414;2024-01-30T01:26:17;98858.88;;;0.58;68.04
35649;BME280;21768;48.562;13.414;2024-01-30T01:28:42;98863.47;;;0.55;67.94
35649;BME280;21768;48.562;13.414;2024-01-30T01:31:09;98866.66;;;0.54;67.64
35649;BME280;21768;48.562;13.414;2024-01-30T01:33:34;98860.28;;;0.56;67.87
35649;BME280;21768;48.562;13.414;2024-01-30T01:36:02;98856.03;;;0.55;67.95
35649;BME280;21768;48.562;13.414;2024-01-30T01:38:28;98856.72;;;0.54;67.91
35649;BME280;21768;48.562;13.414;2024-01-30T01:40:54;98845.19;;;0.54;67.91
35649;BME280;21768;48.562;13.414;2024-01-30T01:43:19;98851.34;;;0.51;67.87
35649;BME280;21768;48.562;13.414;2024-01-30T01:45:45;98846.94;;;0.48;68.05
35649;BME280;21768;48.562;13.414;2024-01-30T01:48:11;98850.13;;;0.47;67.97
35649;BME280;21768;48.562;13.414;2024-01-30T01:50:38;98848.31;;;0.46;68.06
35649;BME280;21768;48.562;13.414;2024-01-30T01:53:05;98849.22;;;0.47;68.02
35649;BME280;21768;48.562;13.414;2024-01-30T01:55:31;98844.75;;;0.44;67.87
35649;BME280;21768;48.562;13.414;2024-01-30T01:57:57;98840.50;;;0.43;68.29
35649;BME280;21768;48.562;13.414;2024-01-30T02:00:23;98843.47;;;0.41;68.42
35649;BME280;21768;48.562;13.414;2024-01-30T02:02:50;98841.88;;;0.41;68.38
35649;BME280;21768;48.562;13.414;2024-01-30T02:05:15;98838.50;;;0.41;68.54
35649;BME280;21768;48.562;13.414;2024-01-30T02:07:42;98838.50;;;0.41;68.52
35649;BME280;21768;48.562;13.414;2024-01-30T02:10:08;98838.41;;;0.46;68.20
35649;BME280;21768;48.562;13.414;2024-01-30T02:12:35;98841.56;;;0.45;68.32
35649;BME280;21768;48.562;13.414;2024-01-30T02:15:01;98838.50;;;0.41;68.33
35649;BME280;21768;48.562;13.414;2024-01-30T02:17:26;98840.28;;;0.42;68.33
35649;BME280;21768;48.562;13.414;2024-01-30T02:19:52;98851.22;;;0.37;68.48
35649;BME280;21768;48.562;13.414;2024-01-30T02:22:19;98846.56;;;0.32;68.30
35649;BME280;21768;48.562;13.414;2024-01-30T02:24:45;98857.00;;;0.30;68.28
35649;BME280;21768;48.562;13.414;2024-01-30T02:27:10;98849.16;;;0.27;68.31
35649;BME280;21768;48.562;13.414;2024-01-30T02:29:36;98851.44;;;0.25;68.78
35649;BME280;21768;48.562;13.414;2024-01-30T02:32:02;98845.41;;;0.23;68.21
35649;BME280;21768;48.562;13.414;2024-01-30T02:34:28;98851.97;;;0.23;68.30
35649;BME280;21768;48.562;13.414;2024-01-30T02:36:54;98851.97;;;0.23;68.53
35649;BME280;21768;48.562;13.414;2024-01-30T02:39:20;98835.78;;;0.19;68.52
35649;BME280;21768;48.562;13.414;2024-01-30T02:41:45;98848.91;;;0.18;68.46
35649;BME280;21768;48.562;13.414;2024-01-30T02:44:11;98843.25;;;0.19;68.51
35649;BME280;21768;48.562;13.414;2024-01-30T02:46:37;98841.47;;;0.18;68.84
35649;BME280;21768;48.562;13.414;2024-01-30T02:49:03;98843.03;;;0.18;68.67
35649;BME280;21768;48.562;13.414;2024-01-30T02:51:28;98843.03;;;0.18;68.77
35649;BME280;21768;48.562;13.414;2024-01-30T02:53:54;98834.00;;;0.18;68.76
35649;BME280;21768;48.562;13.414;2024-01-30T02:56:20;98836.50;;;0.18;68.74
35649;BME280;21768;48.562;13.414;2024-01-30T02:58:46;98838.59;;;0.15;68.77
35649;BME280;21768;48.562;13.414;2024-01-30T03:01:11;98835.00;;;0.13;68.88
35649;BME280;21768;48.562;13.414;2024-01-30T03:03:37;98837.50;;;0.13;68.96
35649;BME280;21768;48.562;13.414;2024-01-30T03:06:03;98838.19;;;0.12;69.08
35649;BME280;21768;48.562;13.414;2024-01-30T03:08:29;98836.59;;;0.13;68.93
35649;BME280;21768;48.562;13.414;2024-01-30T03:10:55;98833.63;;;0.15;69.06
35649;BME280;21768;48.562;13.414;2024-01-30T03:13:21;98832.44;;;0.19;68.89
35649;BME280;21768;48.562;13.414;2024-01-30T03:15:50;98836.28;;;0.17;68.81
35649;BME280;21768;48.562;13.414;2024-01-30T03:18:15;98844.25;;;0.14;69.03
35649;BME280;21768;48.562;13.414;2024-01-30T03:20:41;98833.63;;;0.15;69.08
35649;BME280;21768;48.562;13.414;2024-01-30T03:23:06;98828.47;;;0.14;69.01
35649;BME280;21768;48.562;13.414;2024-01-30T03:25:32;98830.06;;;0.13;68.76
35649;BME280;21768;48.562;13.414;2024-01-30T03:27:57;98820.13;;;0.13;68.97
35649;BME280;21768;48.562;13.414;2024-01-30T03:30:23;98825.97;;;0.14;68.83
35649;BME280;21768;48.562;13.414;2024-01-30T03:32:48;98823.00;;;0.16;68.80
35649;BME280;21768;48.562;13.414;2024-01-30T03:35:14;98834.31;;;0.14;68.80
35649;BME280;21768;48.562;13.414;2024-01-30T03:37:40;98834.63;;;0.10;68.82
35649;BME280;21768;48.562;13.414;2024-01-30T03:40:06;98832.44;;;0.06;68.87
35649;BME280;21768;48.562;13.414;2024-01-30T03:42:32;98825.28;;;0.02;69.11
35649;BME280;21768;48.562;13.414;2024-01-30T03:44:57;98833.81;;;0.04;68.93
35649;BME280;21768;48.562;13.414;2024-01-30T03:47:23;98830.25;;;0.02;68.90
35649;BME280;21768;48.562;13.414;2024-01-30T03:49:49;98833.81;;;0.04;69.18
35649;BME280;21768;48.562;13.414;2024-01-30T03:52:14;98831.84;;;0.02;69.08
35649;BME280;21768;48.562;13.414;2024-01-30T03:54:40;98833.81;;;0.04;68.93
35649;BME280;21768;48.562;13.414;2024-01-30T03:57:06;98830.66;;;0.05;68.88
35649;BME280;21768;48.562;13.414;2024-01-30T03:59:31;98832.03;;;0.03;69.15
35649;BME280;21768;48.562;13.414;2024-01-30T04:01:57;98829.19;;;0.00;69.03
35649;BME280;21768;48.562;13.414;2024-01-30T04:04:22;98829.00;;;-0.02;69.21
35649;BME280;21768;48.562;13.414;2024-01-30T04:06:48;98838.03;;;-0.02;69.08
35649;BME280;21768;48.562;13.414;2024-01-30T04:09:13;98845.06;;;-0.05;68.92
35649;BME280;21768;48.562;13.414;2024-01-30T04:11:40;98845.06;;;-0.05;68.90
35649;BME280;21768;48.562;13.414;2024-01-30T04:14:06;98834.84;;;-0.01;69.10
35649;BME280;21768;48.562;13.414;2024-01-30T04:16:31;98846.94;;;0.03;68.66
35649;BME280;21768;48.562;13.414;2024-01-30T04:18:57;98838.59;;;0.03;68.70
35649;BME280;21768;48.562;13.414;2024-01-30T04:21:23;98838.03;;;-0.02;68.96
35649;BME280;21768;48.562;13.414;2024-01-30T04:23:50;98842.59;;;-0.05;68.79
35649;BME280;21768;48.562;13.414;2024-01-30T04:26:15;98844.69;;;-0.08;68.72
35649;BME280;21768;48.562;13.414;2024-01-30T04:28:42;98838.72;;;-0.16;69.10
35649;BME280;21768;48.562;13.414;2024-01-30T04:31:07;98843.28;;;-0.19;69.06
35649;BME280;21768;48.562;13.414;2024-01-30T04:33:33;98840.22;;;-0.23;69.24
35649;BME280;21768;48.562;13.414;2024-01-30T04:35:59;98836.69;;;-0.25;69.25
35649;BME280;21768;48.562;13.414;2024-01-30T04:38:25;98847.50;;;-0.25;69.17
35649;BME280;21768;48.562;13.414;2024-01-30T04:40:50;98851.91;;;-0.22;69.18
35649;BME280;21768;48.562;13.414;2024-01-30T04:43:16;98856.88;;;-0.22;69.22
35649;BME280;21768;48.562;13.414;2024-01-30T04:45:42;98858.25;;;-0.24;69.05
35649;BME280;21768;48.562;13.414;2024-01-30T04:48:12;98861.47;;;-0.25;69.22
35649;BME280;21768;48.562;13.414;2024-01-30T04:50:38;98858.25;;;-0.24;68.99
35649;BME280;21768;48.562;13.414;2024-01-30T04:53:04;98868.19;;;-0.24;69.22
35649;BME280;21768;48.562;13.414;2024-01-30T04:55:30;98868.19;;;-0.24;69.37
35649;BME280;21768;48.562;13.414;2024-01-30T04:57:56;98868.91;;;-0.25;69.37
35649;BME280;21768;48.562;13.414;2024-01-30T05:00:21;98861.28;;;-0.27;69.44
35649;BME280;21768;48.562;13.414;2024-01-30T05:02:47;98869.59;;;-0.26;69.19
35649;BME280;21768;48.562;13.414;2024-01-30T05:05:13;98866.03;;;-0.28;69.27
35649;BME280;21768;48.562;13.414;2024-01-30T05:07:41;98868.13;;;-0.31;69.30
35649;BME280;21768;48.562;13.414;2024-01-30T05:10:07;98867.00;;;-0.33;69.29
35649;BME280;21768;48.562;13.414;2024-01-30T05:12:33;98869.69;;;-0.32;69.48
35649;BME280;21768;48.562;13.414;2024-01-30T05:14:59;98863.56;;;-0.28;69.29
35649;BME280;21768;48.562;13.414;2024-01-30T05:17:25;98871.00;;;-0.28;69.37
35649;BME280;21768;48.562;13.414;2024-01-30T05:19:51;98867.41;;;-0.30;69.34
35649;BME280;21768;48.562;13.414;2024-01-30T05:22:18;98872.19;;;-0.32;69.40
35649;BME280;21768;48.562;13.414;2024-01-30T05:24:44;98875.75;;;-0.30;69.20
35649;BME280;21768;48.562;13.414;2024-01-30T05:27:10;98867.41;;;-0.30;69.39
35649;BME280;21768;48.562;13.414;2024-01-30T05:29:36;98863.84;;;-0.32;69.29
35649;BME280;21768;48.562;13.414;2024-01-30T05:32:05;98865.44;;;-0.33;69.56
35649;BME280;21768;48.562;13.414;2024-01-30T05:34:33;98862.66;;;-0.29;69.25
35649;BME280;21768;48.562;13.414;2024-01-30T05:36:59;98868.31;;;-0.30;69.40
35649;BME280;21768;48.562;13.414;2024-01-30T05:39:24;98871.97;;;-0.33;69.37
35649;BME280;21768;48.562;13.414;2024-01-30T05:41:50;98873.38;;;-0.36;69.48
35649;BME280;21768;48.562;13.414;2024-01-30T05:44:16;98868.69;;;-0.40;69.47
35649;BME280;21768;48.562;13.414;2024-01-30T05:46:41;98875.72;;;-0.43;69.42
35649;BME280;21768;48.562;13.414;2024-01-30T05:49:07;98879.88;;;-0.49;69.49
35649;BME280;21768;48.562;13.414;2024-01-30T05:51:33;98884.97;;;-0.54;69.54
35649;BME280;21768;48.562;13.414;2024-01-30T05:53:58;98882.69;;;-0.53;69.37
35649;BME280;21768;48.562;13.414;2024-01-30T05:56:24;98885.56;;;-0.50;69.10
35649;BME280;21768;48.562;13.414;2024-01-30T05:58:49;98881.66;;;-0.48;69.44
35649;BME280;21768;48.562;13.414;2024-01-30T06:01:17;98886.63;;;-0.48;69.35
35649;BME280;21768;48.562;13.414;2024-01-30T06:03:43;98878.28;;;-0.48;69.36
35649;BME280;21768;48.562;13.414;2024-01-30T06:06:09;98884.84;;;-0.49;69.46
35649;BME280;21768;48.562;13.414;2024-01-30T06:08:35;98888.41;;;-0.47;69.54
35649;BME280;21768;48.562;13.414;2024-01-30T06:11:00;98891.59;;;-0.48;69.53
35649;BME280;21768;48.562;13.414;2024-01-30T06:13:26;98890.69;;;-0.48;69.41
35649;BME280;21768;48.562;13.414;2024-01-30T06:15:52;98891.59;;;-0.48;69.27
35649;BME280;21768;48.562;13.414;2024-01-30T06:18:18;98887.53;;;-0.47;69.38
35649;BME280;21768;48.562;13.414;2024-01-30T06:20:43;98887.72;;;-0.46;69.16
35649;BME280;21768;48.562;13.414;2024-01-30T06:23:09;98890.69;;;-0.48;69.28
35649;BME280;21768;48.562;13.414;2024-01-30T06:25:35;98886.25;;;-0.51;69.36
35649;BME280;21768;48.562;13.414;2024-01-30T06:28:01;98895.75;;;-0.54;69.33
35649;BME280;21768;48.562;13.414;2024-01-30T06:30:26;98891.22;;;-0.51;69.61
35649;BME280;21768;48.562;13.414;2024-01-30T06:32:52;98883.84;;;-0.44;69.40
35649;BME280;21768;48.562;13.414;2024-01-30T06:35:17;98890.59;;;-0.43;69.40
35649;BME280;21768;48.562;13.414;2024-01-30T06:37:43;98887.84;;;-0.39;69.29
35649;BME280;21768;48.562;13.414;2024-01-30T06:40:09;98891.13;;;-0.32;69.04
35649;BME280;21768;48.562;13.414;2024-01-30T06:42:35;98891.81;;;-0.33;68.79
35649;BME280;21768;48.562;13.414;2024-01-30T06:45:01;98895.38;;;-0.31;69.03
35649;BME280;21768;48.562;13.414;2024-01-30T06:47:27;98900.34;;;-0.31;69.16
35649;BME280;21768;48.562;13.414;2024-01-30T06:49:54;98895.78;;;-0.28;68.97
35649;BME280;21768;48.562;13.414;2024-01-30T06:52:19;98900.25;;;-0.26;68.80
35649;BME280;21768;48.562;13.414;2024-01-30T06:54:45;98889.31;;;-0.21;68.76
35649;BME280;21768;48.562;13.414;2024-01-30T06:57:11;98897.34;;;-0.16;68.67
35649;BME280;21768;48.562;13.414;2024-01-30T06:59:39;98888.81;;;-0.18;68.49
35649;BME280;21768;48.562;13.414;2024-01-30T07:02:09;98900.53;;;-0.17;68.55
35649;BME280;21768;48.562;13.414;2024-01-30T07:04:36;98882.06;;;-0.19;68.61
35649;BME280;21768;48.562;13.414;2024-01-30T07:07:05;98894.28;;;-0.21;68.66
35649;BME280;21768;48.562;13.414;2024-01-30T07:09:31;98900.13;;;-0.20;68.46
35649;BME280;21768;48.562;13.414;2024-01-30T07:11:57;98898.94;;;-0.17;68.48
35649;BME280;21768;48.562;13.414;2024-01-30T07:14:24;98902.03;;;-0.12;68.31
35649;BME280;21768;48.562;13.414;2024-01-30T07:16:50;98904.59;;;-0.05;68.27
35649;BME280;21768;48.562;13.414;2024-01-30T07:19:16;98909.56;;;-0.05;68.00
35649;BME280;21768;48.562;13.414;2024-01-30T07:21:41;98910.97;;;-0.07;68.16
35649;BME280;21768;48.562;13.414;2024-01-30T07:24:07;98901.94;;;-0.07;68.21
35649;BME280;21768;48.562;13.414;2024-01-30T07:26:33;98921.47;;;-0.03;68.15
35649;BME280;21768;48.562;13.414;2024-01-30T07:28:59;98923.03;;;0.10;67.70
35649;BME280;21768;48.562;13.414;2024-01-30T07:31:24;98921.44;;;0.10;68.10
35649;BME280;21768;48.562;13.414;2024-01-30T07:33:50;98921.44;;;0.10;68.11
35649;BME280;21768;48.562;13.414;2024-01-30T07:36:15;98920.06;;;0.12;68.03
35649;BME280;21768;48.562;13.414;2024-01-30T07:38:41;98922.16;;;0.22;67.75
35649;BME280;21768;48.562;13.414;2024-01-30T07:41:06;98921.53;;;0.30;67.58
35649;BME280;21768;48.562;13.414;2024-01-30T07:43:33;98923.00;;;0.35;67.44
35649;BME280;21768;48.562;13.414;2024-01-30T07:45:59;98922.09;;;0.34;67.79
35649;BME280;21768;48.562;13.414;2024-01-30T07:48:26;98922.09;;;0.34;67.83
35649;BME280;21768;48.562;13.414;2024-01-30T07:50:52;98919.72;;;0.42;67.89
35649;BME280;21768;48.562;13.414;2024-01-30T07:53:18;98916.81;;;0.51;67.59
35649;BME280;21768;48.562;13.414;2024-01-30T07:55:44;98922.34;;;0.56;67.49
35649;BME280;21768;48.562;13.414;2024-01-30T07:58:12;98922.06;;;0.60;67.72
35649;BME280;21768;48.562;13.414;2024-01-30T08:00:37;98925.22;;;0.72;67.74
35649;BME280;21768;48.562;13.414;2024-01-30T08:03:03;98929.22;;;0.84;67.61
35649;BME280;21768;48.562;13.414;2024-01-30T08:05:29;98921.66;;;0.89;67.59
35649;BME280;21768;48.562;13.414;2024-01-30T08:07:54;98918.88;;;0.93;67.73
35649;BME280;21768;48.562;13.414;2024-01-30T08:10:20;98927.84;;;1.06;67.76
35649;BME280;21768;48.562;13.414;2024-01-30T08:12:46;98932.19;;;1.14;67.63
35649;BME280;21768;48.562;13.414;2024-01-30T08:15:12;98926.06;;;1.24;67.42
35649;BME280;21768;48.562;13.414;2024-01-30T08:17:38;98921.03;;;1.37;67.23
35649;BME280;21768;48.562;13.414;2024-01-30T08:20:04;98936.72;;;1.43;67.25
35649;BME280;21768;48.562;13.414;2024-01-30T08:22:30;98935.72;;;1.55;67.26
35649;BME280;21768;48.562;13.414;2024-01-30T08:24:56;98936.16;;;1.65;67.24
35649;BME280;21768;48.562;13.414;2024-01-30T08:27:21;98934.78;;;1.75;67.06
35649;BME280;21768;48.562;13.414;2024-01-30T08:29:48;98926.53;;;1.88;67.05
35649;BME280;21768;48.562;13.414;2024-01-30T08:32:13;98923.78;;;2.07;66.83
35649;BME280;21768;48.562;13.414;2024-01-30T08:34:39;98928.69;;;2.19;66.60
35649;BME280;21768;48.562;13.414;2024-01-30T08:37:06;98925.34;;;2.33;66.62
35649;BME280;21768;48.562;13.414;2024-01-30T08:39:32;98918.09;;;2.42;66.48
35649;BME280;21768;48.562;13.414;2024-01-30T08:41:57;98920.44;;;2.54;66.30
35649;BME280;21768;48.562;13.414;2024-01-30T08:44:23;98930.28;;;2.74;66.23
35649;BME280;21768;48.562;13.414;2024-01-30T08:46:49;98928.22;;;2.91;65.86
35649;BME280;21768;48.562;13.414;2024-01-30T08:49:16;98927.19;;;3.11;65.77
35649;BME280;21768;48.562;13.414;2024-01-30T08:51:42;98923.63;;;3.30;65.45
35649;BME280;21768;48.562;13.414;2024-01-30T08:54:08;98931.44;;;3.47;65.14
35649;BME280;21768;48.562;13.414;2024-01-30T08:56:33;98927.91;;;3.66;64.87
35649;BME280;21768;48.562;13.414;2024-01-30T08:58:58;98927.16;;;3.89;64.43
35649;BME280;21768;48.562;13.414;2024-01-30T09:01:25;98924.63;;;4.03;64.19
35649;BME280;21768;48.562;13.414;2024-01-30T09:03:50;98925.78;;;4.35;64.22
35649;BME280;21768;48.562;13.414;2024-01-30T09:06:16;98919.09;;;6.01;61.49
35649;BME280;21768;48.562;13.414;2024-01-30T09:08:41;98912.06;;;8.50;55.83
35649;BME280;21768;48.562;13.414;2024-01-30T09:11:14;98905.38;;;10.11;51.61
35649;BME280;21768;48.562;13.414;2024-01-30T09:13:41;98906.44;;;10.69;49.54
35649;BME280;21768;48.562;13.414;2024-01-30T09:16:07;98902.13;;;10.39;50.10
35649;BME280;21768;48.562;13.414;2024-01-30T09:18:35;98909.72;;;9.76;50.82
35649;BME280;21768;48.562;13.414;2024-01-30T09:21:01;98902.72;;;9.46;51.91
35649;BME280;21768;48.562;13.414;2024-01-30T09:23:27;98915.13;;;10.81;49.65
35649;BME280;21768;48.562;13.414;2024-01-30T09:25:53;98900.66;;;12.89;45.31
35649;BME280;21768;48.562;13.414;2024-01-30T09:28:19;98895.13;;;14.24;42.02
35649;BME280;21768;48.562;13.414;2024-01-30T09:30:44;98894.16;;;15.62;39.32
35649;BME280;21768;48.562;13.414;2024-01-30T09:33:10;98892.41;;;16.62;37.52
35649;BME280;21768;48.562;13.414;2024-01-30T09:35:36;98895.50;;;17.22;35.98
35649;BME280;21768;48.562;13.414;2024-01-30T09:38:03;98892.66;;;16.91;36.21
35649;BME280;21768;48.562;13.414;2024-01-30T09:40:28;98899.66;;;16.81;36.07
35649;BME280;21768;48.562;13.414;2024-01-30T09:42:54;98908.06;;;16.42;36.17
35649;BME280;21768;48.562;13.414;2024-01-30T09:45:24;98899.94;;;15.84;36.72
35649;BME280;21768;48.562;13.414;2024-01-30T09:47:50;98904.91;;;15.35;37.54
35649;BME280;21768;48.562;13.414;2024-01-30T09:50:16;98908.25;;;14.87;38.69
35649;BME280;21768;48.562;13.414;2024-01-30T09:52:46;98913.47;;;14.77;38.13
35649;BME280;21768;48.562;13.414;2024-01-30T09:55:12;98902.97;;;15.07;37.85
35649;BME280;21768;48.562;13.414;2024-01-30T09:57:38;98909.81;;;14.85;37.86
35649;BME280;21768;48.562;13.414;2024-01-30T10:00:05;98902.06;;;15.18;37.38
35649;BME280;21768;48.562;13.414;2024-01-30T10:02:33;98902.44;;;15.71;36.50
35649;BME280;21768;48.562;13.414;2024-01-30T10:04:59;98894.66;;;15.81;35.98
35649;BME280;21768;48.562;13.414;2024-01-30T10:07:25;98893.53;;;16.27;35.64
35649;BME280;21768;48.562;13.414;2024-01-30T10:09:50;98893.66;;;16.29;35.25
35649;BME280;21768;48.562;13.414;2024-01-30T10:12:16;98890.25;;;16.17;35.37
35649;BME280;21768;48.562;13.414;2024-01-30T10:14:42;98882.00;;;15.46;36.46
35649;BME280;21768;48.562;13.414;2024-01-30T10:17:12;98896.25;;;14.39;37.99
35649;BME280;21768;48.562;13.414;2024-01-30T10:19:39;98893.59;;;13.92;38.98
35649;BME280;21768;48.562;13.414;2024-01-30T10:22:05;98886.94;;;13.61;39.37
35649;BME280;21768;48.562;13.414;2024-01-30T10:24:32;98885.94;;;13.05;40.63
35649;BME280;21768;48.562;13.414;2024-01-30T10:26:58;98885.47;;;13.31;40.65
35649;BME280;21768;48.562;13.414;2024-01-30T10:29:24;98874.75;;;15.27;37.56
35649;BME280;21768;48.562;13.414;2024-01-30T10:34:25;98868.56;;;18.83;31.57
35649;BME280;21768;48.562;13.414;2024-01-30T10:36:59;98866.06;;;18.68;31.67
35649;BME280;21768;48.562;13.414;2024-01-30T10:39:28;98864.00;;;17.63;32.75
35649;BME280;21768;48.562;13.414;2024-01-30T10:41:56;98861.47;;;16.18;34.89
35649;BME280;21768;48.562;13.414;2024-01-30T10:44:25;98860.69;;;16.06;35.19
35649;BME280;21768;48.562;13.414;2024-01-30T10:47:00;98860.31;;;16.90;34.02
35649;BME280;21768;48.562;13.414;2024-01-30T10:49:28;98853.41;;;17.29;33.51
35649;BME280;21768;48.562;13.414;2024-01-30T10:51:54;98850.78;;;17.55;33.22
35649;BME280;21768;48.562;13.414;2024-01-30T10:54:24;98851.56;;;17.67;32.99
35649;BME280;21768;48.562;13.414;2024-01-30T10:56:50;98853.22;;;17.67;32.24
35649;BME280;21768;48.562;13.414;2024-01-30T10:59:16;98846.91;;;17.62;33.00
35649;BME280;21768;48.562;13.414;2024-01-30T11:01:42;98841.63;;;17.31;33.07
35649;BME280;21768;48.562;13.414;2024-01-30T11:04:08;98848.97;;;16.34;34.50
35649;BME280;21768;48.562;13.414;2024-01-30T11:06:41;98842.47;;;15.63;35.54
35649;BME280;21768;48.562;13.414;2024-01-30T11:09:10;98844.47;;;15.19;36.27
35649;BME280;21768;48.562;13.414;2024-01-30T11:14:15;98832.69;;;15.81;35.61
35649;BME280;21768;48.562;13.414;2024-01-30T11:16:41;98826.28;;;16.63;35.22
35649;BME280;21768;48.562;13.414;2024-01-30T11:19:10;98813.91;;;18.08;32.87
35649;BME280;21768;48.562;13.414;2024-01-30T11:21:43;98808.69;;;19.58;30.46
35649;BME280;21768;48.562;13.414;2024-01-30T11:24:09;98812.66;;;20.87;29.18
35649;BME280;21768;48.562;13.414;2024-01-30T11:26:34;98818.34;;;21.73;27.84
35649;BME280;21768;48.562;13.414;2024-01-30T11:29:03;98812.56;;;21.79;27.60
35649;BME280;21768;48.562;13.414;2024-01-30T11:31:30;98798.34;;;22.26;27.60
35649;BME280;21768;48.562;13.414;2024-01-30T11:33:58;98805.03;;;22.85;26.50
35649;BME280;21768;48.562;13.414;2024-01-30T11:36:25;98802.16;;;22.56;26.62
35649;BME280;21768;48.562;13.414;2024-01-30T11:38:54;98792.88;;;22.39;26.84
35649;BME280;21768;48.562;13.414;2024-01-30T11:41:20;98796.88;;;22.12;26.81
35649;BME280;21768;48.562;13.414;2024-01-30T11:43:53;98783.63;;;22.86;26.61
35649;BME280;21768;48.562;13.414;2024-01-30T11:46:19;98783.63;;;23.08;26.18
35649;BME280;21768;48.562;13.414;2024-01-30T11:48:45;98782.88;;;23.11;25.78
35649;BME280;21768;48.562;13.414;2024-01-30T11:51:13;98784.00;;;23.17;26.10
35649;BME280;21768;48.562;13.414;2024-01-30T11:53:39;98779.16;;;23.96;25.30
35649;BME280;21768;48.562;13.414;2024-01-30T11:56:06;98775.53;;;24.17;24.69
35649;BME280;21768;48.562;13.414;2024-01-30T11:58:32;98774.19;;;24.02;24.94
35649;BME280;21768;48.562;13.414;2024-01-30T12:00:59;98772.25;;;24.73;23.93
35649;BME280;21768;48.562;13.414;2024-01-30T12:03:25;98771.81;;;25.73;23.02
35649;BME280;21768;48.562;13.414;2024-01-30T12:05:57;98773.84;;;26.52;22.33
35649;BME280;21768;48.562;13.414;2024-01-30T12:08:25;98767.50;;;26.39;21.90
35649;BME280;21768;48.562;13.414;2024-01-30T12:11:00;98758.09;;;26.43;22.52
35649;BME280;21768;48.562;13.414;2024-01-30T12:13:30;98756.59;;;26.90;21.81
35649;BME280;21768;48.562;13.414;2024-01-30T12:15:56;98758.34;;;27.30;21.27
35649;BME280;21768;48.562;13.414;2024-01-30T12:18:22;98751.69;;;27.41;20.70
35649;BME280;21768;48.562;13.414;2024-01-30T12:21:00;98756.13;;;27.92;21.00
35649;BME280;21768;48.562;13.414;2024-01-30T12:23:27;98747.69;;;28.55;19.97
35649;BME280;21768;48.562;13.414;2024-01-30T12:25:53;98758.19;;;29.22;19.26
35649;BME280;21768;48.562;13.414;2024-01-30T12:28:19;98744.63;;;29.45;18.88
35649;BME280;21768;48.562;13.414;2024-01-30T12:30:45;98745.16;;;29.94;18.31
35649;BME280;21768;48.562;13.414;2024-01-30T12:33:16;98748.03;;;30.23;18.01
35649;BME280;21768;48.562;13.414;2024-01-30T12:35:48;98748.56;;;29.15;19.12
35649;BME280;21768;48.562;13.414;2024-01-30T12:38:14;98750.94;;;28.99;19.15
35649;BME280;21768;48.562;13.414;2024-01-30T12:40:40;98746.94;;;29.24;19.04
35649;BME280;21768;48.562;13.414;2024-01-30T12:43:06;98745.41;;;29.38;18.90
35649;BME280;21768;48.562;13.414;2024-01-30T12:45:31;98741.44;;;29.68;18.42
35649;BME280;21768;48.562;13.414;2024-01-30T12:47:57;98736.19;;;29.63;18.12
35649;BME280;21768;48.562;13.414;2024-01-30T12:50:23;98738.97;;;28.52;18.91
35649;BME280;21768;48.562;13.414;2024-01-30T12:52:50;98733.25;;;28.20;19.47
35649;BME280;21768;48.562;13.414;2024-01-30T12:55:16;98735.28;;;27.42;19.78